Time;durP1;ratioP1;P1;durP2;ratioP2;P2;SDS_P1;SDS_P2;PMS_P1;PMS_P2;Temp;Humidity;BMP_temperature;BMP_pressure;BME280_temperature;BME280_humidity;BME280_pressure;Samples;Min_cycle;Max_cycle;Signal;HPM_P1;HPM_P2
2023/09/20 00:00:29;;;;;;;4.13;2.80;;;;;;;;;;5051845;28;20280;-60
2023/09/20 00:02:55;;;;;;;5.38;2.35;;;;;;;;;;5048961;28;20041;-61
2023/09/20 00:05:22;;;;;;;4.50;2.30;;;;;;;;;;5051897;28;20112;-60
2023/09/20 00:07:54;;;;;;;4.65;2.60;;;;;;;;;;5050501;28;20040;-61
2023/09/20 00:10:21;;;;;;;3.65;2.67;;;;;;;;;;5052881;28;20497;-60
2023/09/20 00:12:47;;;;;;;3.55;2.17;;;;;;;;;;5051863;28;20500;-60
2023/09/20 00:15:13;;;;;;;5.50;2.58;;;;;;;;;;5052202;28;20131;-60
2023/09/20 00:17:39;;;;;;;4.80;2.97;;;;;;;;;;5052227;28;20813;-60
2023/09/20 00:20:06;;;;;;;3.80;2.70;;;;;;;;;;5050644;28;20041;-61
2023/09/20 00:22:32;;;;;;;3.20;2.58;;;;;;;;;;5052091;28;20040;-60
2023/09/20 00:24:59;;;;;;;4.80;2.30;;;;;;;;;;5053661;28;20140;-61
2023/09/20 00:27:26;;;;;;;5.40;2.53;;;;;;;;;;5051704;28;20051;-60
2023/09/20 00:29:52;;;;;;;3.95;2.40;;;;;;;;;;5051050;28;20076;-61
2023/09/20 00:32:18;;;;;;;6.70;2.78;;;;;;;;;;5051746;28;20473;-60
2023/09/20 00:34:44;;;;;;;3.30;2.45;;;;;;;;;;5052172;28;20045;-61
2023/09/20 00:37:10;;;;;;;6.15;2.65;;;;;;;;;;5051924;28;20041;-60
2023/09/20 00:39:36;;;;;;;5.57;2.70;;;;;;;;;;5049616;28;20072;-60
2023/09/20 00:42:02;;;;;;;6.32;3.15;;;;;;;;;;5051257;28;20146;-61
2023/09/20 00:44:28;;;;;;;4.47;2.58;;;;;;;;;;5054010;28;20055;-60
2023/09/20 00:46:55;;;;;;;2.47;1.92;;;;;;;;;;5049797;28;20045;-60
2023/09/20 00:49:21;;;;;;;3.55;2.10;;;;;;;;;;5053003;28;20378;-60
2023/09/20 00:51:48;;;;;;;6.03;3.15;;;;;;;;;;5047209;28;20045;-61
2023/09/20 00:54:15;;;;;;;6.00;2.72;;;;;;;;;;5050619;28;20041;-61
2023/09/20 00:56:42;;;;;;;4.00;2.55;;;;;;;;;;5052358;28;20064;-60
2023/09/20 00:59:09;;;;;;;6.18;2.47;;;;;;;;;;5052456;28;20033;-60
2023/09/20 01:01:36;;;;;;;5.13;2.33;;;;;;;;;;5054682;28;20110;-60
2023/09/20 01:04:02;;;;;;;5.20;2.88;;;;;;;;;;5056183;28;20044;-60
2023/09/20 01:06:28;;;;;;;4.32;2.70;;;;;;;;;;5055346;28;20466;-61
2023/09/20 01:08:55;;;;;;;7.93;3.08;;;;;;;;;;5048927;28;20052;-61
2023/09/20 01:11:21;;;;;;;5.65;2.90;;;;;;;;;;5054613;28;20477;-60
2023/09/20 01:13:47;;;;;;;7.78;3.47;;;;;;;;;;5052725;28;20123;-60
2023/09/20 01:16:15;;;;;;;5.88;2.95;;;;;;;;;;5050049;28;20124;-60
2023/09/20 01:18:44;;;;;;;4.05;2.55;;;;;;;;;;5049612;28;20045;-60
2023/09/20 01:21:11;;;;;;;7.25;3.33;;;;;;;;;;5047720;28;20044;-60
2023/09/20 01:23:38;;;;;;;4.50;2.85;;;;;;;;;;5051550;28;20033;-60
2023/09/20 01:26:05;;;;;;;5.25;3.08;;;;;;;;;;5049712;28;20049;-60
2023/09/20 01:28:31;;;;;;;5.63;3.15;;;;;;;;;;5051817;28;20045;-61
2023/09/20 01:31:00;;;;;;;5.93;2.65;;;;;;;;;;5049193;28;20123;-61
2023/09/20 01:33:26;;;;;;;3.35;2.40;;;;;;;;;;5053378;28;20047;-61
2023/09/20 01:35:54;;;;;;;5.07;2.80;;;;;;;;;;5051369;28;20063;-61
2023/09/20 01:38:20;;;;;;;4.13;1.90;;;;;;;;;;5050481;28;20167;-61
2023/09/20 01:40:46;;;;;;;3.10;1.90;;;;;;;;;;5054391;28;20217;-60
2023/09/20 01:43:13;;;;;;;5.70;2.25;;;;;;;;;;5052918;28;20053;-61
2023/09/20 01:45:42;;;;;;;6.50;2.88;;;;;;;;;;5053924;28;20047;-60
2023/09/20 01:48:10;;;;;;;6.43;2.20;;;;;;;;;;5056118;28;20090;-60
2023/09/20 01:50:37;;;;;;;6.05;2.78;;;;;;;;;;5053208;28;20068;-60
2023/09/20 01:53:09;;;;;;;5.30;3.10;;;;;;;;;;5053816;28;20051;-61
2023/09/20 01:55:42;;;;;;;3.47;2.53;;;;;;;;;;5058422;28;20053;-61
2023/09/20 01:58:07;;;;;;;;;;;;;;;;;;5051777;28;20609;-61
2023/09/20 02:00:40;;;;;;;9.40;2.60;;;;;;;;;;5060148;28;19917;-60
2023/09/20 02:03:10;;;;;;;9.90;1.98;;;;;;;;;;5055899;28;20043;-61
2023/09/20 02:05:36;;;;;;;4.05;2.30;;;;;;;;;;5051811;28;20568;-60
2023/09/20 02:08:03;;;;;;;4.88;2.03;;;;;;;;;;5054632;28;20052;-60
2023/09/20 02:10:29;;;;;;;6.65;2.72;;;;;;;;;;5053715;28;20650;-60
2023/09/20 02:12:56;;;;;;;6.60;3.00;;;;;;;;;;5051350;28;20128;-60
2023/09/20 02:15:23;;;;;;;3.65;2.40;;;;;;;;;;5048172;28;20040;-60
2023/09/20 02:17:50;;;;;;;4.88;2.70;;;;;;;;;;5051568;28;20048;-60
2023/09/20 02:20:19;;;;;;;5.93;2.47;;;;;;;;;;5054160;28;20090;-60
2023/09/20 02:22:49;;;;;;;5.78;2.60;;;;;;;;;;5054080;28;20040;-61
2023/09/20 02:25:20;;;;;;;4.80;2.35;;;;;;;;;;5051489;28;20037;-60
2023/09/20 02:27:47;;;;;;;3.77;2.63;;;;;;;;;;5051215;28;20077;-61
2023/09/20 02:30:19;;;;;;;4.07;2.50;;;;;;;;;;5056856;28;20044;-61
2023/09/20 02:32:46;;;;;;;4.78;2.42;;;;;;;;;;5052320;28;20029;-60
2023/09/20 02:35:12;;;;;;;5.55;2.35;;;;;;;;;;5052668;28;20045;-60
2023/09/20 02:37:40;;;;;;;4.00;2.08;;;;;;;;;;5055755;28;20040;-61
2023/09/20 02:40:07;;;;;;;6.57;2.53;;;;;;;;;;5051583;28;20075;-59
2023/09/20 02:42:40;;;;;;;4.88;2.45;;;;;;;;;;5054603;28;20048;-60
2023/09/20 02:45:07;;;;;;;4.32;2.15;;;;;;;;;;5052352;28;20049;-61
2023/09/20 02:47:33;;;;;;;4.90;2.40;;;;;;;;;;5055660;28;20047;-60
2023/09/20 02:49:59;;;;;;;3.97;2.33;;;;;;;;;;5053792;28;20037;-61
2023/09/20 02:52:25;;;;;;;4.13;2.47;;;;;;;;;;5057128;28;20052;-60
2023/09/20 02:54:51;;;;;;;6.75;2.42;;;;;;;;;;5054853;28;20072;-60
2023/09/20 02:57:17;;;;;;;3.47;2.10;;;;;;;;;;5055784;28;20049;-60
2023/09/20 02:59:43;;;;;;;4.18;2.28;;;;;;;;;;5055526;28;20049;-60
2023/09/20 03:02:10;;;;;;;8.13;3.40;;;;;;;;;;5055298;28;20539;-61
2023/09/20 03:04:37;;;;;;;6.35;2.70;;;;;;;;;;5056427;28;20051;-61
2023/09/20 03:07:03;;;;;;;5.90;2.70;;;;;;;;;;5056135;28;20064;-60
2023/09/20 03:09:35;;;;;;;3.15;2.25;;;;;;;;;;5053745;28;20040;-60
2023/09/20 03:12:05;;;;;;;2.30;2.10;;;;;;;;;;5052837;28;20045;-60
2023/09/20 03:14:33;;;;;;;4.22;1.80;;;;;;;;;;5051974;28;20051;-60
2023/09/20 03:17:00;;;;;;;5.72;2.67;;;;;;;;;;5051272;28;20455;-60
2023/09/20 03:19:26;;;;;;;4.72;2.40;;;;;;;;;;5052259;28;20123;-60
2023/09/20 03:21:53;;;;;;;5.25;2.83;;;;;;;;;;5053443;28;20079;-60
2023/09/20 03:24:19;;;;;;;3.65;2.20;;;;;;;;;;5051097;28;20044;-61
2023/09/20 03:26:45;;;;;;;4.05;2.30;;;;;;;;;;5050763;28;20544;-61
2023/09/20 03:29:11;;;;;;;4.47;2.20;;;;;;;;;;5046001;28;20116;-60
2023/09/20 03:31:38;;;;;;;1.90;1.80;;;;;;;;;;5073227;28;20454;-60
2023/09/20 03:34:05;;;;;;;7.60;2.38;;;;;;;;;;5050446;28;20348;-60
2023/09/20 03:36:32;;;;;;;3.60;2.70;;;;;;;;;;5051970;28;20089;-61
2023/09/20 03:38:59;;;;;;;4.05;2.83;;;;;;;;;;5055545;28;20091;-61
2023/09/20 03:41:25;;;;;;;7.55;2.75;;;;;;;;;;5054155;28;20067;-60
2023/09/20 03:43:51;;;;;;;4.75;2.42;;;;;;;;;;5051106;28;20041;-61
2023/09/20 03:46:17;;;;;;;4.68;2.25;;;;;;;;;;5054010;28;20048;-61
2023/09/20 03:48:46;;;;;;;4.25;2.10;;;;;;;;;;5050956;28;20044;-60
2023/09/20 03:51:15;;;;;;;2.15;1.77;;;;;;;;;;5050960;28;20184;-61
2023/09/20 03:53:42;;;;;;;2.05;1.73;;;;;;;;;;5052830;28;20033;-61
2023/09/20 03:56:08;;;;;;;2.63;1.75;;;;;;;;;;5052092;28;20160;-60
2023/09/20 03:58:34;;;;;;;3.90;2.22;;;;;;;;;;5050795;28;20045;-60
2023/09/20 04:01:02;;;;;;;4.50;2.05;;;;;;;;;;5054841;28;21746;-61
2023/09/20 04:03:28;;;;;;;2.42;1.90;;;;;;;;;;5052851;28;20370;-60
2023/09/20 04:05:57;;;;;;;5.32;2.75;;;;;;;;;;5051571;28;20044;-61
2023/09/20 04:08:23;;;;;;;3.15;2.40;;;;;;;;;;5067608;28;20575;-61
2023/09/20 04:10:49;;;;;;;3.42;2.20;;;;;;;;;;5051773;28;20048;-60
2023/09/20 04:13:15;;;;;;;4.78;2.17;;;;;;;;;;5052050;28;20048;-60
2023/09/20 04:15:42;;;;;;;13.75;2.78;;;;;;;;;;5046022;28;20072;-60
2023/09/20 04:18:09;;;;;;;6.50;3.15;;;;;;;;;;5049989;28;20040;-60
2023/09/20 04:20:35;;;;;;;5.95;2.85;;;;;;;;;;5052926;28;20155;-60
2023/09/20 04:23:02;;;;;;;5.28;2.95;;;;;;;;;;5053370;28;20079;-60
2023/09/20 04:25:28;;;;;;;5.72;2.80;;;;;;;;;;5050139;28;20041;-60
2023/09/20 04:27:54;;;;;;;3.13;2.33;;;;;;;;;;5051663;28;20067;-61
2023/09/20 04:30:21;;;;;;;4.45;2.33;;;;;;;;;;5053518;28;20409;-61
2023/09/20 04:32:47;;;;;;;7.07;2.85;;;;;;;;;;5051199;28;20098;-61
2023/09/20 04:35:13;;;;;;;2.35;2.00;;;;;;;;;;5052433;28;20529;-60
2023/09/20 04:37:39;;;;;;;4.35;2.35;;;;;;;;;;5052699;28;20047;-61
2023/09/20 04:40:08;;;;;;;3.63;2.22;;;;;;;;;;5050061;28;20040;-61
2023/09/20 04:42:35;;;;;;;5.10;2.83;;;;;;;;;;5048853;28;20041;-60
2023/09/20 04:45:07;;;;;;;5.22;2.75;;;;;;;;;;5052634;28;20040;-60
2023/09/20 04:47:36;;;;;;;4.50;2.30;;;;;;;;;;5048534;28;20485;-61
2023/09/20 04:50:03;;;;;;;4.60;2.33;;;;;;;;;;5049744;28;20157;-60
2023/09/20 04:52:30;;;;;;;5.53;2.70;;;;;;;;;;5052410;28;20056;-60
2023/09/20 04:54:56;;;;;;;5.40;2.20;;;;;;;;;;5051869;28;20069;-60
2023/09/20 04:57:22;;;;;;;3.33;2.35;;;;;;;;;;5054248;28;20060;-60
2023/09/20 04:59:50;;;;;;;3.20;2.13;;;;;;;;;;5052168;28;20123;-60
2023/09/20 05:02:16;;;;;;;4.18;2.40;;;;;;;;;;5050180;28;20362;-61
2023/09/20 05:04:42;;;;;;;4.47;2.30;;;;;;;;;;5048132;28;20452;-60
2023/09/20 05:07:09;;;;;;;4.85;2.17;;;;;;;;;;5045631;28;20045;-61
2023/09/20 05:09:36;;;;;;;4.53;2.58;;;;;;;;;;5054970;28;20072;-61
2023/09/20 05:12:03;;;;;;;7.20;2.35;;;;;;;;;;5054286;28;20112;-61
2023/09/20 05:14:29;;;;;;;2.92;1.70;;;;;;;;;;5054248;28;20036;-60
2023/09/20 05:16:55;;;;;;;4.18;1.85;;;;;;;;;;5053157;28;20160;-60
2023/09/20 05:19:24;;;;;;;2.53;2.10;;;;;;;;;;5055145;28;20045;-60
2023/09/20 05:21:50;;;;;;;2.85;1.85;;;;;;;;;;5051175;28;20692;-60
2023/09/20 05:24:16;;;;;;;3.22;1.98;;;;;;;;;;5053245;28;20519;-60
2023/09/20 05:26:43;;;;;;;3.92;2.13;;;;;;;;;;5053778;28;20048;-61
2023/09/20 05:29:10;;;;;;;2.97;1.98;;;;;;;;;;5055392;28;20045;-61
2023/09/20 05:31:36;;;;;;;3.70;2.40;;;;;;;;;;5052365;28;20050;-60
2023/09/20 05:34:02;;;;;;;3.22;1.52;;;;;;;;;;5056162;28;20677;-61
2023/09/20 05:36:29;;;;;;;5.78;2.40;;;;;;;;;;5053485;28;20037;-60
2023/09/20 05:38:55;;;;;;;3.38;2.03;;;;;;;;;;5059969;28;20668;-61
2023/09/20 05:41:22;;;;;;;6.15;2.83;;;;;;;;;;5051571;28;20128;-60
2023/09/20 05:43:48;;;;;;;4.65;2.35;;;;;;;;;;5052250;28;20036;-61
2023/09/20 05:46:14;;;;;;;4.82;2.40;;;;;;;;;;5038761;28;20041;-61
2023/09/20 05:48:44;;;;;;;4.38;2.38;;;;;;;;;;5047304;28;20052;-60
2023/09/20 05:51:14;;;;;;;2.05;1.85;;;;;;;;;;5045506;28;20045;-60
2023/09/20 05:53:40;;;;;;;3.92;2.30;;;;;;;;;;5048868;28;20520;-60
2023/09/20 05:56:10;;;;;;;3.13;2.10;;;;;;;;;;5047671;28;20135;-60
2023/09/20 05:58:36;;;;;;;3.10;2.05;;;;;;;;;;5037187;28;20448;-60
2023/09/20 06:01:02;;;;;;;5.00;2.67;;;;;;;;;;5048586;28;20059;-60
2023/09/20 06:03:28;;;;;;;6.18;2.63;;;;;;;;;;5046621;28;20063;-61
2023/09/20 06:05:55;;;;;;;3.80;2.28;;;;;;;;;;5054008;28;20048;-60
2023/09/20 06:08:21;;;;;;;3.75;2.30;;;;;;;;;;5040962;28;20087;-60
2023/09/20 06:10:47;;;;;;;4.15;1.60;;;;;;;;;;5047636;28;20466;-60
2023/09/20 06:13:13;;;;;;;3.65;2.28;;;;;;;;;;5048176;28;20071;-61
2023/09/20 06:15:39;;;;;;;4.13;2.47;;;;;;;;;;5047769;28;20045;-60
2023/09/20 06:18:07;;;;;;;3.95;2.38;;;;;;;;;;5047455;28;20128;-60
2023/09/20 06:20:33;;;;;;;3.65;2.42;;;;;;;;;;5048353;28;20052;-60
2023/09/20 06:22:59;;;;;;;2.78;1.95;;;;;;;;;;5048634;28;20145;-61
2023/09/20 06:25:26;;;;;;;5.50;2.08;;;;;;;;;;5050834;28;20075;-60
2023/09/20 06:27:53;;;;;;;3.05;1.98;;;;;;;;;;5049744;28;20044;-60
2023/09/20 06:30:20;;;;;;;2.78;1.58;;;;;;;;;;5047431;28;20791;-60
2023/09/20 06:32:47;;;;;;;3.22;1.70;;;;;;;;;;5045157;28;20045;-60
2023/09/20 06:35:15;;;;;;;3.03;2.10;;;;;;;;;;5048023;28;20036;-61
2023/09/20 06:37:45;;;;;;;6.93;2.85;;;;;;;;;;5044171;28;20076;-61
2023/09/20 06:40:21;;;;;;;2.67;1.80;;;;;;;;;;5055045;28;20119;-61
2023/09/20 06:42:47;;;;;;;3.10;1.90;;;;;;;;;;5048859;28;20041;-61
2023/09/20 06:45:13;;;;;;;4.32;1.95;;;;;;;;;;5048461;28;20045;-60
2023/09/20 06:47:40;;;;;;;3.60;1.95;;;;;;;;;;5049220;28;20540;-60
2023/09/20 06:50:07;;;;;;;3.17;2.10;;;;;;;;;;5047444;28;20070;-61
2023/09/20 06:52:33;;;;;;;4.95;2.10;;;;;;;;;;5047292;28;20147;-61
2023/09/20 06:54:59;;;;;;;4.72;1.70;;;;;;;;;;5047363;28;20655;-60
2023/09/20 06:57:25;;;;;;;4.50;1.73;;;;;;;;;;5047240;28;20571;-60
2023/09/20 06:59:54;;;;;;;5.75;2.28;;;;;;;;;;5046225;28;20385;-61
2023/09/20 07:02:20;;;;;;;4.03;2.17;;;;;;;;;;5043606;28;20106;-61
2023/09/20 07:04:49;;;;;;;3.10;2.10;;;;;;;;;;5041979;28;20051;-61
2023/09/20 07:07:16;;;;;;;4.22;2.13;;;;;;;;;;5049632;28;20036;-61
2023/09/20 07:09:43;;;;;;;3.50;1.65;;;;;;;;;;5055130;28;20041;-60
2023/09/20 07:12:09;;;;;;;3.53;2.13;;;;;;;;;;5048235;28;21627;-61
2023/09/20 07:14:35;;;;;;;2.83;2.22;;;;;;;;;;5048860;28;20044;-61
2023/09/20 07:17:02;;;;;;;4.05;2.30;;;;;;;;;;5048672;28;20060;-60
2023/09/20 07:19:29;;;;;;;2.65;1.48;;;;;;;;;;5053440;28;20051;-61
2023/09/20 07:21:56;;;;;;;3.30;1.70;;;;;;;;;;5052739;28;20054;-60
2023/09/20 07:24:26;;;;;;;2.85;1.60;;;;;;;;;;5053031;28;20037;-61
2023/09/20 07:26:52;;;;;;;3.30;1.73;;;;;;;;;;5050893;28;20178;-59
2023/09/20 07:29:18;;;;;;;2.65;1.75;;;;;;;;;;5048174;28;20044;-56
2023/09/20 07:31:45;;;;;;;2.97;1.83;;;;;;;;;;5045329;28;20489;-58
2023/09/20 07:34:13;;;;;;;2.30;1.60;;;;;;;;;;5046798;28;20040;-60
2023/09/20 07:36:49;;;;;;;3.03;1.80;;;;;;;;;;5044794;28;20056;-62
2023/09/20 07:39:18;;;;;;;2.28;1.75;;;;;;;;;;5038796;28;20045;-61
2023/09/20 07:41:50;;;;;;;2.90;1.77;;;;;;;;;;5044254;28;20036;-60
2023/09/20 07:44:17;;;;;;;5.15;2.25;;;;;;;;;;5050279;28;20047;-60
2023/09/20 07:46:43;;;;;;;2.03;1.75;;;;;;;;;;5043100;28;20134;-60
2023/09/20 07:49:13;;;;;;;2.55;2.00;;;;;;;;;;5047107;28;20040;-60
2023/09/20 07:51:39;;;;;;;8.73;2.20;;;;;;;;;;5047352;28;20077;-60
2023/09/20 07:54:09;;;;;;;3.50;2.42;;;;;;;;;;5045704;28;21127;-60
2023/09/20 07:56:35;;;;;;;3.15;2.13;;;;;;;;;;5043394;28;20524;-59
2023/09/20 07:59:05;;;;;;;3.42;2.35;;;;;;;;;;5046145;28;20240;-60
2023/09/20 08:01:31;;;;;;;7.53;2.55;;;;;;;;;;5049124;28;20047;-60
2023/09/20 08:03:58;;;;;;;2.15;1.90;;;;;;;;;;5052014;28;20040;-60
2023/09/20 08:06:29;;;;;;;2.53;2.10;;;;;;;;;;5046906;28;20082;-61
2023/09/20 08:08:57;;;;;;;4.55;2.10;;;;;;;;;;5046261;28;20510;-61
2023/09/20 08:11:23;;;;;;;4.22;2.08;;;;;;;;;;5049531;28;20583;-60
2023/09/20 08:13:51;;;;;;;4.40;2.20;;;;;;;;;;5047449;28;20048;-60
2023/09/20 08:16:17;;;;;;;5.93;2.35;;;;;;;;;;5045428;28;20045;-60
2023/09/20 08:21:29;;;;;;;7.22;2.25;;;;;;;;;;5044865;28;20048;-60
2023/09/20 09:00:28;;;;;;;3.42;2.47;;;;;;;;;;5043560;28;20505;-60
2023/09/20 09:02:57;;;;;;;3.90;2.63;;;;;;;;;;5045346;28;20061;-60
2023/09/20 09:05:24;;;;;;;4.90;2.50;;;;;;;;;;5043604;28;20036;-60
2023/09/20 09:07:50;;;;;;;4.03;2.67;;;;;;;;;;5044385;28;20559;-60
2023/09/20 09:10:18;;;;;;;4.43;2.30;;;;;;;;;;5044971;28;20397;-61
2023/09/20 09:12:44;;;;;;;6.65;2.63;;;;;;;;;;5044919;28;20048;-61
2023/09/20 09:15:11;;;;;;;2.95;2.47;;;;;;;;;;5044275;28;20179;-60
2023/09/20 09:17:41;;;;;;;4.00;2.53;;;;;;;;;;5043969;28;20049;-60
2023/09/20 09:20:20;;;;;;;2.40;2.20;;;;;;;;;;5051189;28;20044;-60
2023/09/20 09:22:47;;;;;;;5.68;2.40;;;;;;;;;;5045995;28;20072;-60
2023/09/20 09:25:14;;;;;;;5.10;2.80;;;;;;;;;;5045034;28;20547;-60
2023/09/20 09:27:41;;;;;;;3.80;2.80;;;;;;;;;;5043252;28;20037;-60
2023/09/20 09:30:14;;;;;;;5.45;2.83;;;;;;;;;;5044848;28;20158;-65
2023/09/20 09:32:41;;;;;;;3.72;2.65;;;;;;;;;;5046682;28;20055;-61
2023/09/20 09:35:08;;;;;;;4.43;2.75;;;;;;;;;;5037099;28;20053;-60
2023/09/20 09:37:35;;;;;;;3.63;2.70;;;;;;;;;;5033410;28;20480;-60
2023/09/20 09:40:01;;;;;;;3.72;2.50;;;;;;;;;;5045088;28;20470;-61
2023/09/20 09:42:28;;;;;;;5.10;3.03;;;;;;;;;;5043886;28;20485;-60
2023/09/20 09:44:58;;;;;;;7.00;3.00;;;;;;;;;;5047622;28;20485;-61
2023/09/20 09:47:24;;;;;;;4.95;2.90;;;;;;;;;;5042250;28;20069;-61
2023/09/20 09:49:52;;;;;;;3.45;2.72;;;;;;;;;;5043125;28;20064;-61
2023/09/20 09:52:23;;;;;;;3.05;2.75;;;;;;;;;;5044527;28;20125;-60
2023/09/20 09:54:49;;;;;;;5.47;2.72;;;;;;;;;;5045822;28;20107;-61
2023/09/20 09:57:15;;;;;;;6.63;2.53;;;;;;;;;;5044149;28;20105;-61
2023/09/20 09:59:41;;;;;;;5.63;2.92;;;;;;;;;;5044538;28;20521;-60
2023/09/20 10:02:17;;;;;;;5.50;3.22;;;;;;;;;;5033098;28;20033;-60
2023/09/20 10:04:44;;;;;;;3.70;2.55;;;;;;;;;;5033053;28;20045;-61
2023/09/20 10:07:10;;;;;;;4.03;2.70;;;;;;;;;;5040682;28;20059;-60
2023/09/20 10:09:39;;;;;;;2.53;2.20;;;;;;;;;;5048095;28;20039;-60
2023/09/20 10:12:08;;;;;;;2.75;2.25;;;;;;;;;;5048560;28;20045;-61
2023/09/20 10:14:36;;;;;;;5.13;2.10;;;;;;;;;;5053043;28;20040;-61
2023/09/20 10:17:08;;;;;;;3.05;2.83;;;;;;;;;;5043185;28;20044;-61
2023/09/20 10:19:38;;;;;;;3.10;2.63;;;;;;;;;;5041018;28;20136;-61
2023/09/20 10:22:08;;;;;;;2.95;2.45;;;;;;;;;;5033759;28;20060;-61
2023/09/20 10:24:54;;;;;;;4.03;2.60;;;;;;;;;;5027581;28;20041;-61
2023/09/20 10:27:22;;;;;;;3.20;2.90;;;;;;;;;;5041408;28;20072;-61
2023/09/20 10:30:10;;;;;;;2.83;2.10;;;;;;;;;;5046385;28;20045;-61
2023/09/20 10:32:48;;;;;;;6.78;2.90;;;;;;;;;;5046180;28;20409;-61
2023/09/20 10:35:19;;;;;;;4.90;2.80;;;;;;;;;;5039060;28;20543;-61
2023/09/20 10:38:26;;;;;;;2.63;2.42;;;;;;;;;;5041893;28;20053;-61
2023/09/20 10:40:56;;;;;;;3.03;2.65;;;;;;;;;;5046227;28;20037;-61
2023/09/20 10:43:41;;;;;;;2.80;2.15;;;;;;;;;;5040735;28;20071;-60
2023/09/20 10:46:15;;;;;;;3.40;2.70;;;;;;;;;;5045493;28;20052;-61
2023/09/20 10:49:01;;;;;;;4.28;2.40;;;;;;;;;;5047300;28;20045;-61
2023/09/20 10:51:39;;;;;;;3.53;2.50;;;;;;;;;;5040089;28;20405;-62
2023/09/20 10:54:20;;;;;;;3.80;2.58;;;;;;;;;;5044973;28;20048;-61
2023/09/20 10:56:52;;;;;;;3.53;2.42;;;;;;;;;;5044359;28;20061;-61
2023/09/20 10:59:22;;;;;;;2.50;2.30;;;;;;;;;;5046525;28;20380;-61
2023/09/20 11:01:56;;;;;;;2.55;2.35;;;;;;;;;;5046770;28;20090;-61
2023/09/20 11:04:25;;;;;;;1.75;1.65;;;;;;;;;;5047119;28;20140;-61
2023/09/20 11:06:54;;;;;;;2.55;2.35;;;;;;;;;;5046612;28;20099;-61
2023/09/20 11:09:24;;;;;;;3.10;2.90;;;;;;;;;;5047022;28;20547;-61
2023/09/20 11:11:50;;;;;;;3.20;2.90;;;;;;;;;;5046864;28;20067;-62
2023/09/20 11:14:19;;;;;;;4.07;3.10;;;;;;;;;;5046355;28;20153;-61
2023/09/20 11:16:45;;;;;;;3.28;2.70;;;;;;;;;;5047096;28;20481;-61
2023/09/20 11:19:14;;;;;;;2.85;2.65;;;;;;;;;;5048452;28;20041;-61
2023/09/20 11:21:43;;;;;;;3.70;2.72;;;;;;;;;;5047892;28;20116;-61
2023/09/20 11:24:13;;;;;;;3.13;2.53;;;;;;;;;;5048130;28;20045;-60
2023/09/20 11:26:40;;;;;;;2.55;2.35;;;;;;;;;;5045935;28;20036;-61
2023/09/20 11:29:06;;;;;;;3.25;2.10;;;;;;;;;;5047051;28;20048;-61
2023/09/20 11:31:35;;;;;;;3.72;2.80;;;;;;;;;;5046851;28;20065;-60
2023/09/20 11:34:03;;;;;;;2.08;1.90;;;;;;;;;;5045819;28;20117;-61
2023/09/20 11:36:29;;;;;;;4.10;2.67;;;;;;;;;;5046620;28;20053;-61
2023/09/20 11:38:55;;;;;;;4.63;2.83;;;;;;;;;;5046403;28;20090;-61
2023/09/20 11:41:25;;;;;;;2.30;2.10;;;;;;;;;;5046169;28;20041;-61
2023/09/20 11:43:55;;;;;;;3.22;2.25;;;;;;;;;;5046283;28;20044;-61
2023/09/20 11:46:22;;;;;;;1.90;1.80;;;;;;;;;;5038376;28;20746;-61
2023/09/20 11:48:52;;;;;;;6.13;2.75;;;;;;;;;;5045771;28;20076;-61
2023/09/20 11:51:18;;;;;;;3.05;2.00;;;;;;;;;;5046106;28;20408;-61
2023/09/20 11:53:44;;;;;;;1.95;1.75;;;;;;;;;;5046742;28;20106;-61
2023/09/20 11:56:10;;;;;;;3.58;2.33;;;;;;;;;;5045542;28;20501;-61
2023/09/20 11:58:37;;;;;;;4.07;2.85;;;;;;;;;;5046659;28;20044;-61
2023/09/20 12:01:06;;;;;;;2.78;2.17;;;;;;;;;;5046118;28;20036;-61
2023/09/20 12:03:33;;;;;;;2.22;1.75;;;;;;;;;;5045397;28;20033;-61
2023/09/20 12:05:59;;;;;;;2.90;2.00;;;;;;;;;;5046031;28;20047;-61
2023/09/20 12:08:32;;;;;;;2.63;2.13;;;;;;;;;;5040339;28;20049;-61
2023/09/20 12:10:58;;;;;;;3.85;2.33;;;;;;;;;;5045728;28;20498;-61
2023/09/20 12:13:24;;;;;;;2.75;1.77;;;;;;;;;;5045910;28;20071;-61
2023/09/20 12:15:51;;;;;;;3.13;2.10;;;;;;;;;;5043530;28;20045;-61
2023/09/20 12:18:17;;;;;;;3.22;2.90;;;;;;;;;;5045895;28;20048;-61
2023/09/20 12:20:44;;;;;;;2.95;2.63;;;;;;;;;;5045418;28;20485;-61
2023/09/20 12:23:12;;;;;;;3.30;3.00;;;;;;;;;;5044430;28;20044;-61
2023/09/20 12:25:40;;;;;;;2.63;2.42;;;;;;;;;;5046004;28;20041;-61
2023/09/20 12:28:06;;;;;;;2.72;2.50;;;;;;;;;;5046315;28;20576;-61
2023/09/20 12:30:32;;;;;;;3.58;2.92;;;;;;;;;;5045103;28;20036;-61
2023/09/20 12:32:58;;;;;;;3.67;3.00;;;;;;;;;;5045553;28;20397;-61
2023/09/20 12:35:25;;;;;;;3.15;2.85;;;;;;;;;;5045224;28;20172;-61
2023/09/20 12:37:52;;;;;;;3.50;3.20;;;;;;;;;;5045014;28;20053;-61
2023/09/20 12:40:21;;;;;;;3.38;3.17;;;;;;;;;;5045089;28;20512;-61
2023/09/20 12:42:48;;;;;;;5.53;3.17;;;;;;;;;;5045588;28;20056;-61
2023/09/20 12:45:14;;;;;;;3.35;3.05;;;;;;;;;;5044690;28;20049;-61
2023/09/20 12:47:42;;;;;;;4.47;3.20;;;;;;;;;;5045219;28;20562;-61
2023/09/20 12:50:12;;;;;;;3.35;3.05;;;;;;;;;;5045428;28;20251;-61
2023/09/20 12:52:38;;;;;;;2.75;2.55;;;;;;;;;;5045409;28;20047;-61
2023/09/20 12:55:04;;;;;;;3.95;3.25;;;;;;;;;;5045001;28;20140;-61
2023/09/20 12:57:31;;;;;;;2.95;2.75;;;;;;;;;;5045391;28;20136;-61
2023/09/20 13:00:00;;;;;;;2.85;1.88;;;;;;;;;;5044638;28;20033;-61
2023/09/20 13:02:27;;;;;;;3.08;2.50;;;;;;;;;;5045123;28;20044;-61
2023/09/20 13:04:53;;;;;;;2.40;2.20;;;;;;;;;;5045007;28;20045;-61
2023/09/20 13:07:19;;;;;;;2.40;2.20;;;;;;;;;;5044427;28;20704;-61
2023/09/20 13:09:46;;;;;;;3.40;2.38;;;;;;;;;;5045358;28;20041;-61
2023/09/20 13:12:12;;;;;;;3.72;2.10;;;;;;;;;;5044476;28;20060;-61
2023/09/20 13:14:38;;;;;;;1.83;1.73;;;;;;;;;;5045682;28;20037;-61
2023/09/20 13:17:04;;;;;;;2.40;1.60;;;;;;;;;;5045291;28;20487;-61
2023/09/20 13:19:31;;;;;;;2.70;2.05;;;;;;;;;;5044571;28;20068;-61
2023/09/20 13:21:59;;;;;;;1.85;1.73;;;;;;;;;;5043847;28;20037;-61
2023/09/20 13:24:25;;;;;;;2.13;1.92;;;;;;;;;;5045149;28;20493;-61
2023/09/20 13:26:51;;;;;;;2.08;1.70;;;;;;;;;;5044542;28;20045;-61
2023/09/20 13:29:17;;;;;;;2.53;1.80;;;;;;;;;;5045175;28;20033;-61
2023/09/20 13:31:44;;;;;;;1.92;1.80;;;;;;;;;;5044952;28;20545;-61
2023/09/20 13:34:14;;;;;;;4.60;2.10;;;;;;;;;;5047301;28;20045;-61
2023/09/20 13:36:40;;;;;;;2.38;1.55;;;;;;;;;;5049193;28;20041;-61
2023/09/20 13:39:06;;;;;;;2.80;2.00;;;;;;;;;;5048986;28;20037;-61
2023/09/20 13:41:32;;;;;;;3.13;2.08;;;;;;;;;;5048203;28;20404;-61
2023/09/20 13:43:58;;;;;;;2.10;1.67;;;;;;;;;;5048960;28;20093;-61
2023/09/20 13:46:25;;;;;;;2.13;1.60;;;;;;;;;;5049025;28;20037;-61
2023/09/20 13:48:51;;;;;;;1.38;1.20;;;;;;;;;;5048022;28;20061;-61
2023/09/20 13:51:17;;;;;;;1.92;1.80;;;;;;;;;;5048622;28;20045;-62
2023/09/20 13:53:44;;;;;;;3.42;1.98;;;;;;;;;;5047018;28;20056;-61
2023/09/20 13:56:11;;;;;;;3.70;1.60;;;;;;;;;;5048192;28;20060;-62
2023/09/20 13:58:37;;;;;;;2.72;1.88;;;;;;;;;;5048869;28;20497;-61
2023/09/20 14:01:05;;;;;;;2.42;2.22;;;;;;;;;;5048439;28;20040;-61
2023/09/20 14:03:34;;;;;;;4.55;2.70;;;;;;;;;;5047372;28;20448;-61
2023/09/20 14:06:01;;;;;;;2.70;2.10;;;;;;;;;;5048557;28;20851;-61
2023/09/20 14:08:27;;;;;;;2.72;2.15;;;;;;;;;;5045752;28;20276;-61
2023/09/20 14:10:53;;;;;;;2.63;2.28;;;;;;;;;;5048084;28;20049;-61
2023/09/20 14:13:19;;;;;;;2.53;2.05;;;;;;;;;;5044521;28;20045;-61
2023/09/20 14:15:45;;;;;;;2.22;2.03;;;;;;;;;;5047295;28;20390;-60
2023/09/20 14:18:11;;;;;;;5.85;2.65;;;;;;;;;;5048236;28;20063;-61
2023/09/20 14:20:38;;;;;;;4.28;2.25;;;;;;;;;;5048458;28;20044;-61
2023/09/20 14:23:04;;;;;;;3.47;2.40;;;;;;;;;;5040230;28;20048;-61
2023/09/20 14:25:30;;;;;;;3.33;2.42;;;;;;;;;;5047854;28;20356;-61
2023/09/20 14:27:57;;;;;;;2.20;1.90;;;;;;;;;;5047422;28;20059;-61
2023/09/20 14:30:23;;;;;;;3.53;2.10;;;;;;;;;;5047333;28;20386;-61
2023/09/20 14:32:50;;;;;;;2.00;1.80;;;;;;;;;;5047638;28;20055;-61
2023/09/20 14:35:16;;;;;;;4.43;1.50;;;;;;;;;;5047709;28;20043;-61
2023/09/20 14:37:43;;;;;;;2.75;2.00;;;;;;;;;;5043393;28;20073;-61
2023/09/20 14:40:17;;;;;;;1.95;1.80;;;;;;;;;;5048001;28;20838;-61
2023/09/20 14:42:44;;;;;;;3.30;1.92;;;;;;;;;;5042141;28;20072;-62
2023/09/20 14:45:16;;;;;;;2.58;2.08;;;;;;;;;;5040071;28;20091;-61
2023/09/20 14:47:43;;;;;;;;;;;;;;;;;;5057702;28;20045;-61
2023/09/20 14:50:12;;;;;;;2.25;2.05;;;;;;;;;;5053320;28;19920;-61
2023/09/20 14:52:38;;;;;;;3.33;2.55;;;;;;;;;;5046931;28;20044;-61
2023/09/20 14:55:04;;;;;;;2.42;1.90;;;;;;;;;;5044602;28;20077;-60
2023/09/20 14:57:33;;;;;;;1.85;1.70;;;;;;;;;;5050974;28;20056;-62
2023/09/20 15:00:00;;;;;;;3.03;2.20;;;;;;;;;;5055232;28;20082;-61
2023/09/20 15:02:26;;;;;;;2.17;1.85;;;;;;;;;;5051473;28;20056;-62
2023/09/20 15:04:52;;;;;;;2.13;1.98;;;;;;;;;;5053160;28;20527;-62
2023/09/20 15:07:18;;;;;;;1.85;1.70;;;;;;;;;;5056413;28;20045;-61
2023/09/20 15:09:46;;;;;;;1.60;1.50;;;;;;;;;;5044546;28;20041;-61
2023/09/20 15:12:15;;;;;;;3.83;2.00;;;;;;;;;;5047128;28;20055;-61
2023/09/20 15:14:43;;;;;;;3.20;2.05;;;;;;;;;;5054304;28;20108;-61
2023/09/20 15:17:10;;;;;;;2.97;2.30;;;;;;;;;;5051388;28;20049;-61
2023/09/20 15:19:36;;;;;;;2.53;2.05;;;;;;;;;;5051238;28;20081;-61
2023/09/20 15:22:02;;;;;;;2.40;2.20;;;;;;;;;;5052957;28;20069;-61
2023/09/20 15:24:28;;;;;;;2.40;2.20;;;;;;;;;;5054154;28;20057;-60